Time;durP1;ratioP1;P1;durP2;ratioP2;P2;SDS_P1;SDS_P2;PMS_P1;PMS_P2;Temp;Humidity;BMP_temperature;BMP_pressure;BME280_temperature;BME280_humidity;BME280_pressure;Samples;Min_cycle;Max_cycle;Signal;HPM_P1;HPM_P2
2020/12/05 00:01:30;;;;;;;10.07;5.75;;;3.80;99.90;;;;;;6718473;88;20256;-76
2020/12/05 00:11:31;;;;;;;9.90;5.10;;;3.70;99.90;;;;;;6714511;88;20526;-75
2020/12/05 00:21:31;;;;;;;9.25;5.35;;;3.80;99.90;;;;;;6713201;88;20314;-76
2020/12/05 00:31:32;;;;;;;10.70;5.83;;;3.90;99.90;;;;;;6717966;88;20198;-75
2020/12/05 00:41:32;;;;;;;12.45;5.72;;;4.00;99.90;;;;;;6725821;88;20529;-75
2020/12/05 00:51:33;;;;;;;8.93;5.00;;;4.00;99.90;;;;;;6721309;88;20332;-76
2020/12/05 01:01:34;;;;;;;11.27;6.60;;;4.10;99.90;;;;;;6720110;88;20555;-76
2020/12/05 01:11:34;;;;;;;7.57;4.87;;;4.10;99.90;;;;;;6718541;88;20277;-77
2020/12/05 01:21:35;;;;;;;10.05;5.53;;;4.20;99.90;;;;;;6723607;88;20194;-76
2020/12/05 01:31:35;;;;;;;9.90;5.53;;;4.20;99.90;;;;;;6718663;88;20702;-76
2020/12/05 01:41:36;;;;;;;10.98;5.50;;;4.40;99.90;;;;;;6724319;88;20194;-74
2020/12/05 01:51:38;;;;;;;9.02;5.30;;;4.40;99.90;;;;;;6715431;88;20352;-75
2020/12/05 02:01:39;;;;;;;10.48;5.62;;;4.50;99.90;;;;;;6722537;88;20198;-75
2020/12/05 02:11:46;;;;;;;8.68;5.03;;;4.50;99.90;;;;;;6726144;88;20190;-74
2020/12/05 02:21:50;;;;;;;10.60;5.87;;;4.70;99.90;;;;;;6718688;88;20182;-77
2020/12/05 02:31:52;;;;;;;11.70;6.25;;;4.80;99.90;;;;;;6717956;88;20206;-77
2020/12/05 02:41:53;;;;;;;10.98;6.10;;;4.60;99.90;;;;;;6722918;88;20190;-76
2020/12/05 02:51:54;;;;;;;15.60;6.12;;;4.60;99.90;;;;;;6720257;88;20252;-76
2020/12/05 03:01:55;;;;;;;10.88;6.22;;;4.50;99.90;;;;;;6718668;88;20211;-77
2020/12/05 03:11:56;;;;;;;12.60;6.68;;;4.40;99.90;;;;;;6713233;88;20210;-75
2020/12/05 03:21:56;;;;;;;12.07;7.03;;;4.50;99.90;;;;;;6729880;88;20595;-76
2020/12/05 03:41:57;;;;;;;19.77;8.98;;;4.70;99.90;;;;;;6748915;88;20223;-75
2020/12/05 03:51:59;;;;;;;18.10;10.38;;;4.50;99.90;;;;;;6714613;88;20236;-76
2020/12/05 04:02:00;;;;;;;20.85;10.80;;;4.60;99.90;;;;;;6713931;88;20202;-75
2020/12/05 04:12:00;;;;;;;22.35;11.32;;;4.60;99.90;;;;;;6723938;88;20189;-75
2020/12/05 04:22:01;;;;;;;25.45;12.88;;;4.60;99.90;;;;;;6724666;88;21135;-75
2020/12/05 04:32:02;;;;;;;29.48;15.18;;;4.40;99.90;;;;;;6722362;88;20182;-75
2020/12/05 04:42:03;;;;;;;32.17;14.70;;;4.50;99.90;;;;;;6720428;88;20202;-75
2020/12/05 04:52:31;;;;;;;35.00;16.60;;;4.50;99.90;;;;;;6722885;88;20339;-77
2020/12/05 05:02:39;;;;;;;30.58;15.98;;;4.40;99.90;;;;;;6723888;88;20581;-76
2020/12/05 05:12:40;;;;;;;35.45;16.73;;;4.30;99.90;;;;;;6737216;88;20247;-76
2020/12/05 05:22:40;;;;;;;35.85;17.02;;;4.30;99.90;;;;;;6740465;88;20305;-77
2020/12/05 05:32:46;;;;;;;32.63;15.60;;;4.20;99.90;;;;;;6722596;88;20182;-77
2020/12/05 05:42:47;;;;;;;31.23;15.87;;;4.20;99.90;;;;;;6728432;88;20209;-77
2020/12/05 05:52:53;;;;;;;35.03;15.65;;;4.20;99.90;;;;;;6720875;88;20791;-77
2020/12/05 06:03:01;;;;;;;35.67;16.07;;;4.10;99.90;;;;;;6726224;88;20185;-75
2020/12/05 06:13:02;;;;;;;34.92;16.58;;;4.00;99.90;;;;;;6721804;88;20177;-76
2020/12/05 06:23:07;;;;;;;36.63;15.40;;;4.00;99.90;;;;;;6721693;88;20173;-76
2020/12/05 06:33:07;;;;;;;38.72;16.12;;;4.10;99.90;;;;;;6704972;88;20223;-76
2020/12/05 06:43:12;;;;;;;29.33;14.57;;;4.20;99.90;;;;;;6703343;88;20234;-75
2020/12/05 06:53:21;;;;;;;24.10;11.65;;;4.30;99.90;;;;;;6705256;88;20215;-75
2020/12/05 07:03:30;;;;;;;21.45;10.30;;;4.50;99.90;;;;;;6706090;88;20200;-75
2020/12/05 07:13:41;;;;;;;14.35;7.47;;;4.70;99.90;;;;;;6706338;88;20892;-76
2020/12/05 07:23:41;;;;;;;17.23;8.73;;;4.90;99.90;;;;;;6722301;88;20208;-77
2020/12/05 07:33:43;;;;;;;15.07;7.10;;;4.70;99.90;;;;;;6724685;88;20190;-76
2020/12/05 07:43:45;;;;;;;14.68;7.28;;;4.80;99.90;;;;;;6722635;88;20264;-75
2020/12/05 07:53:47;;;;;;;16.23;8.88;;;4.90;99.90;;;;;;6722500;88;20215;-76
2020/12/05 08:04:01;;;;;;;13.07;6.80;;;5.00;99.90;;;;;;6724043;88;20698;-76
2020/12/05 08:14:01;;;;;;;11.25;5.95;;;5.00;99.90;;;;;;6724149;88;20221;-77
2020/12/05 08:24:07;;;;;;;12.13;6.20;;;5.20;99.90;;;;;;6722468;88;20204;-76
2020/12/05 08:34:08;;;;;;;7.97;4.27;;;5.30;99.90;;;;;;6721835;88;20206;-76
2020/12/05 08:44:10;;;;;;;4.87;2.83;;;5.50;99.90;;;;;;6740265;88;20351;-78
2020/12/05 08:54:10;;;;;;;2.55;1.42;;;6.00;99.90;;;;;;6731876;88;20547;-77
2020/12/05 09:04:26;;;;;;;2.37;1.10;;;6.50;99.90;;;;;;6746822;88;20285;-76
2020/12/05 09:14:26;;;;;;;1.20;0.60;;;6.70;99.90;;;;;;6715296;88;20194;-77
2020/12/05 09:24:41;;;;;;;1.42;0.57;;;6.80;99.90;;;;;;6721591;88;20207;-77
2020/12/05 09:34:42;;;;;;;1.17;0.60;;;7.40;99.90;;;;;;6733236;88;20198;-77
2020/12/05 09:44:42;;;;;;;1.45;0.60;;;7.80;99.90;;;;;;6730924;88;20377;-77
2020/12/05 09:54:43;;;;;;;2.03;0.90;;;7.70;99.90;;;;;;6723479;88;21014;-77
2020/12/05 10:04:43;;;;;;;1.65;0.62;;;7.90;99.90;;;;;;6712664;88;20789;-76
2020/12/05 10:14:44;;;;;;;1.30;0.55;;;8.10;99.90;;;;;;6724149;88;20223;-75
2020/12/05 10:24:44;;;;;;;1.37;0.70;;;8.10;99.90;;;;;;6731796;88;20816;-75
2020/12/05 10:34:45;;;;;;;2.12;0.80;;;7.60;99.90;;;;;;6716464;88;20319;-75
2020/12/05 10:44:45;;;;;;;1.73;0.70;;;7.50;99.90;;;;;;6726988;88;20277;-76
2020/12/05 10:54:46;;;;;;;1.45;0.60;;;8.40;99.90;;;;;;6719181;88;20215;-76
2020/12/05 11:04:46;;;;;;;2.25;0.60;;;8.60;99.90;;;;;;6727354;88;20187;-75
2020/12/05 11:14:47;;;;;;;1.20;0.57;;;8.70;99.90;;;;;;6726993;88;20204;-76
2020/12/05 11:24:47;;;;;;;1.80;0.75;;;9.70;99.90;;;;;;6725329;88;20215;-75
2020/12/05 11:34:48;;;;;;;3.33;0.70;;;8.50;99.90;;;;;;6722499;88;20288;-76
2020/12/05 11:44:48;;;;;;;2.17;0.70;;;8.10;99.90;;;;;;6723072;88;20832;-76
2020/12/05 11:54:49;;;;;;;1.75;0.70;;;7.60;99.90;;;;;;6721597;88;20241;-76
2020/12/05 12:04:49;;;;;;;1.27;0.57;;;7.90;99.90;;;;;;6722175;88;20215;-76
2020/12/05 12:14:50;;;;;;;1.02;0.43;;;8.90;99.90;;;;;;6717300;88;20208;-76
2020/12/05 12:24:50;;;;;;;1.70;0.75;;;8.90;99.90;;;;;;6716222;88;20202;-74
2020/12/05 12:34:51;;;;;;;2.08;0.60;;;8.50;99.90;;;;;;6722595;88;20824;-76
2020/12/05 12:44:52;;;;;;;1.92;0.70;;;8.40;99.90;;;;;;6719067;88;20240;-75
2020/12/05 12:54:53;;;;;;;2.15;0.62;;;8.50;99.90;;;;;;6725438;88;20224;-75
2020/12/05 13:04:53;;;;;;;2.55;0.93;;;9.30;99.90;;;;;;6719722;88;20206;-75
2020/12/05 13:14:54;;;;;;;2.40;0.85;;;9.70;99.90;;;;;;6720021;88;20323;-76
2020/12/05 13:24:54;;;;;;;1.95;0.80;;;9.60;99.90;;;;;;6715400;88;20968;-75
2020/12/05 13:34:55;;;;;;;1.80;0.80;;;8.60;99.90;;;;;;6719576;88;20654;-75
2020/12/05 13:44:55;;;;;;;3.28;1.20;;;8.90;99.90;;;;;;6720132;88;20194;-76
2020/12/05 13:54:56;;;;;;;4.25;1.40;;;9.50;99.90;;;;;;6725789;88;20204;-74
2020/12/05 14:04:56;;;;;;;2.40;1.20;;;9.30;99.90;;;;;;6714539;88;20669;-76
2020/12/05 14:14:57;;;;;;;2.97;1.50;;;8.50;99.90;;;;;;6728137;88;20236;-75
2020/12/05 14:24:58;;;;;;;2.70;1.20;;;8.00;99.90;;;;;;6721512;88;20622;-75
2020/12/05 14:34:58;;;;;;;2.60;1.43;;;7.80;99.90;;;;;;6718629;88;20263;-73
2020/12/05 14:45:02;;;;;;;3.40;1.73;;;7.60;99.90;;;;;;6717954;88;20564;-73
2020/12/05 14:55:44;;;;;;;4.47;1.98;;;7.40;99.90;;;;;;6729448;77;20205;-76
2020/12/05 15:05:44;;;;;;;3.35;1.75;;;7.00;99.90;;;;;;6716825;88;20203;-76
2020/12/05 15:15:45;;;;;;;3.37;1.90;;;6.80;99.90;;;;;;6707356;88;20195;-75
2020/12/05 15:25:46;;;;;;;3.37;1.58;;;6.70;99.90;;;;;;6707112;88;20592;-75
2020/12/05 15:35:49;;;;;;;3.97;1.50;;;6.50;99.90;;;;;;6708999;88;20708;-76
2020/12/05 15:45:50;;;;;;;2.78;1.60;;;6.30;99.90;;;;;;6712168;88;20173;-76
2020/12/05 15:55:50;;;;;;;2.95;1.80;;;6.00;99.90;;;;;;6708639;88;20245;-76
2020/12/05 16:05:57;;;;;;;5.43;2.75;;;5.90;99.90;;;;;;6709721;88;20216;-78
2020/12/05 16:15:58;;;;;;;6.72;3.45;;;5.60;99.90;;;;;;6715031;88;20178;-79
2020/12/05 16:25:59;;;;;;;7.10;3.47;;;5.40;99.90;;;;;;6714841;88;20192;-80
2020/12/05 16:36:01;;;;;;;9.65;4.20;;;5.20;99.90;;;;;;6711891;88;20187;-82
2020/12/05 16:46:02;;;;;;;8.63;3.80;;;5.10;99.90;;;;;;6716479;88;20841;-83
2020/12/05 16:56:02;;;;;;;7.90;3.40;;;5.10;99.90;;;;;;6669945;88;20333;-81
2020/12/05 17:06:03;;;;;;;5.22;3.05;;;5.10;99.90;;;;;;6676957;88;20209;-79
2020/12/05 17:16:03;;;;;;;5.18;2.40;;;5.00;99.90;;;;;;6677053;88;21239;-81
2020/12/05 17:26:04;;;;;;;6.85;3.10;;;5.10;99.90;;;;;;6663330;88;20201;-79
2020/12/05 17:36:04;;;;;;;5.30;3.05;;;5.00;99.90;;;;;;6663423;88;20267;-82
2020/12/05 17:46:05;;;;;;;6.87;3.43;;;4.90;99.90;;;;;;6663398;88;20182;-80
2020/12/05 17:56:05;;;;;;;5.05;2.75;;;4.90;99.90;;;;;;6663066;88;20486;-77
2020/12/05 18:06:08;;;;;;;10.10;3.20;;;4.90;99.90;;;;;;6660625;88;20193;-76
2020/12/05 18:16:09;;;;;;;6.40;3.42;;;4.90;99.90;;;;;;6674057;88;20196;-76
2020/12/05 18:26:10;;;;;;;6.05;3.67;;;4.70;99.90;;;;;;6660104;88;20195;-76
2020/12/05 18:36:12;;;;;;;6.30;3.85;;;4.60;99.90;;;;;;6674432;88;20761;-81
2020/12/05 18:46:17;;;;;;;10.00;4.72;;;4.60;99.90;;;;;;6673280;88;20246;-78
2020/12/05 18:56:18;;;;;;;9.40;4.75;;;4.50;99.90;;;;;;6674019;88;20591;-76
2020/12/05 19:06:21;;;;;;;8.85;5.47;;;4.40;99.90;;;;;;6660932;88;20186;-79
2020/12/05 19:16:21;;;;;;;10.90;5.87;;;4.40;99.90;;;;;;6662242;88;20292;-77
2020/12/05 19:26:22;;;;;;;9.88;5.75;;;4.30;99.90;;;;;;6665835;88;20224;-79
2020/12/05 19:36:23;;;;;;;11.82;6.28;;;4.20;99.90;;;;;;6673023;88;20190;-81
2020/12/05 19:46:23;;;;;;;11.10;6.28;;;4.20;99.90;;;;;;6648092;88;20221;-75
2020/12/05 19:56:27;;;;;;;13.23;7.28;;;4.30;99.90;;;;;;6668894;88;20217;-77
2020/12/05 20:06:27;;;;;;;13.93;7.72;;;4.30;99.90;;;;;;6666263;88;20181;-77
2020/12/05 20:16:28;;;;;;;13.95;7.55;;;4.30;99.90;;;;;;6667647;88;20342;-77
2020/12/05 20:26:29;;;;;;;12.13;7.55;;;4.30;99.90;;;;;;6656591;88;20180;-78
2020/12/05 20:36:29;;;;;;;13.07;7.87;;;4.10;99.90;;;;;;6655141;88;20705;-76
2020/12/05 20:46:30;;;;;;;17.23;9.18;;;4.00;99.90;;;;;;6650519;89;20213;-77
2020/12/05 20:56:30;;;;;;;14.45;8.50;;;4.10;99.90;;;;;;6653153;88;20356;-77
2020/12/05 21:06:31;;;;;;;17.77;9.90;;;4.20;99.90;;;;;;6654151;88;20331;-76
2020/12/05 21:16:33;;;;;;;21.60;11.27;;;4.20;99.90;;;;;;6652556;88;20259;-78
2020/12/05 21:26:33;;;;;;;19.70;11.12;;;4.10;99.90;;;;;;6650533;89;20622;-79
2020/12/05 21:36:34;;;;;;;18.55;10.85;;;4.10;99.90;;;;;;6647724;88;20343;-78
2020/12/05 21:46:35;;;;;;;20.63;11.03;;;4.00;99.90;;;;;;6661158;88;20218;-77
2020/12/05 21:56:35;;;;;;;19.80;10.52;;;4.00;99.90;;;;;;6661404;88;20517;-78
2020/12/05 22:06:36;;;;;;;15.30;8.85;;;4.10;99.90;;;;;;6655287;89;20511;-80
2020/12/05 22:16:36;;;;;;;17.20;10.15;;;4.10;99.90;;;;;;6726901;88;20195;-79
2020/12/05 22:26:37;;;;;;;17.70;9.95;;;4.00;99.90;;;;;;6720155;88;20206;-79
2020/12/05 22:36:42;;;;;;;15.75;9.27;;;3.80;99.90;;;;;;6695278;88;20242;-79
2020/12/05 22:46:52;;;;;;;19.10;9.88;;;3.70;99.90;;;;;;6670550;88;20187;-78
2020/12/05 22:56:52;;;;;;;15.63;8.73;;;3.60;99.90;;;;;;6657939;89;20220;-80
2020/12/05 23:06:53;;;;;;;16.65;9.50;;;3.80;99.90;;;;;;6659953;88;20791;-79
2020/12/05 23:16:54;;;;;;;14.00;8.63;;;3.90;99.90;;;;;;6661808;88;20251;-79
2020/12/05 23:26:54;;;;;;;17.12;10.02;;;3.80;99.90;;;;;;6637885;88;20669;-80
2020/12/05 23:36:56;;;;;;;19.17;10.43;;;3.60;99.90;;;;;;6658243;88;20275;-77
2020/12/05 23:46:57;;;;;;;18.83;10.40;;;3.40;99.90;;;;;;6642620;88;20826;-77
2020/12/05 23:56:58;;;;;;;19.05;10.43;;;3.30;99.90;;;;;;6652896;88;20190;-77
